createdAt,value
2017-06-01T00:01:50.243Z,18.1
2017-06-01T00:03:55.500Z,18.1
2017-06-01T00:10:12.534Z,18.3
2017-06-01T00:24:51.359Z,17.8
2017-06-01T00:25:53.698Z,17.8
2017-06-01T00:26:56.542Z,17.7
2017-06-01T00:27:59.390Z,17.7
2017-06-01T00:29:02.237Z,17.8
2017-06-01T00:32:10.521Z,17.8
2017-06-01T00:38:27.573Z,17.6
2017-06-01T00:43:41.184Z,17.5
2017-06-01T00:51:01.329Z,17.4
2017-06-01T00:52:03.172Z,17.3
2017-06-01T00:53:06.022Z,17.5
2017-06-01T00:54:08.864Z,17.5
2017-06-01T00:55:11.704Z,17.5
2017-06-01T00:56:14.802Z,17.5
2017-06-01T00:57:17.010Z,17.5
2017-06-01T00:58:19.903Z,17.4
2017-06-01T00:59:22.626Z,17.4
2017-06-01T01:00:25.476Z,17.3
2017-06-01T01:01:28.602Z,17.3
2017-06-01T01:03:33.862Z,17.2
2017-06-01T01:05:39.118Z,17.2
2017-06-01T01:06:42.219Z,17.3
2017-06-01T01:07:45.062Z,17.2
2017-06-01T01:08:47.925Z,17.2
2017-06-01T01:09:50.169Z,17.1
2017-06-01T01:11:56.182Z,17.1
2017-06-01T01:12:58.536Z,17
2017-06-01T01:14:01.381Z,17
2017-06-01T01:15:04.226Z,17
2017-06-01T01:16:07.078Z,17.1
2017-06-01T01:17:10.105Z,16.9
2017-06-01T01:18:12.313Z,16.9
2017-06-01T01:19:15.159Z,16.8
2017-06-01T01:20:18.012Z,16.8
2017-06-01T01:21:20.863Z,16.9
2017-06-01T01:22:23.826Z,17
2017-06-01T01:23:26.029Z,17
2017-06-01T01:24:28.876Z,16.9
2017-06-01T01:25:31.590Z,16.9
2017-06-01T01:26:34.527Z,16.9
2017-06-01T01:29:42.942Z,16.8
2017-06-01T01:30:45.790Z,16.8
2017-06-01T01:31:48.369Z,16.8
2017-06-01T01:32:51.215Z,16.8
2017-06-01T01:46:27.260Z,16.6
2017-06-01T01:47:29.603Z,16.5
2017-06-01T01:48:32.450Z,16.5
2017-06-01T01:49:35.294Z,16.6
2017-06-01T01:50:38.008Z,16.6
2017-06-01T01:51:41.103Z,16.6
2017-06-01T01:52:43.316Z,16.6
2017-06-01T01:53:46.170Z,16.7
2017-06-01T01:54:49.012Z,16.6
2017-06-01T01:55:51.795Z,16.6
2017-06-01T01:56:54.942Z,16.6
2017-06-01T01:57:57.849Z,16.6
2017-06-01T01:59:00.190Z,16.5
2017-06-01T02:00:02.431Z,16.4
2017-06-01T02:01:05.644Z,16.5
2017-06-01T02:02:08.103Z,16.3
2017-06-01T02:03:10.680Z,16.3
2017-06-01T02:04:13.525Z,16.3
2017-06-01T02:05:16.375Z,16.4
2017-06-01T02:07:22.315Z,16.4
2017-06-01T02:08:24.517Z,16.5
2017-06-01T02:09:27.362Z,16.4
2017-06-01T02:10:30.206Z,16.5
2017-06-01T02:11:33.053Z,16.5
2017-06-01T02:12:36.199Z,16.5
2017-06-01T02:13:38.539Z,16.5
2017-06-01T02:14:41.382Z,16.5
2017-06-01T02:15:43.726Z,16.5
2017-06-01T02:16:46.440Z,16.5
2017-06-01T02:17:49.532Z,16.5
2017-06-01T02:18:51.797Z,16.5
2017-06-01T02:19:55.011Z,16.5
2017-06-01T02:20:57.859Z,16.6
2017-06-01T02:22:00.201Z,16.6
2017-06-01T02:23:03.223Z,16.6
2017-06-01T02:24:06.073Z,16.5
2017-06-01T02:25:08.422Z,16.4
2017-06-01T02:26:11.133Z,16.3
2017-06-01T02:27:13.976Z,16.2
2017-06-01T02:28:17.123Z,16.1
2017-06-01T02:30:22.385Z,16.2
2017-06-01T02:31:25.234Z,16.2
2017-06-01T02:32:27.594Z,16.3
2017-06-01T02:33:30.558Z,16.2
2017-06-01T02:34:33.414Z,16.1
2017-06-01T02:35:36.260Z,16.2
2017-06-01T02:36:38.476Z,16.1
2017-06-01T02:37:41.694Z,16
2017-06-01T02:38:44.297Z,16
2017-06-01T02:39:47.012Z,16
2017-06-01T02:40:49.861Z,16
2017-06-01T02:41:52.204Z,16.1
2017-06-01T02:42:55.052Z,16.2
2017-06-01T02:43:58.017Z,16.2
2017-06-01T02:45:00.730Z,16.3
2017-06-01T02:46:03.510Z,16.3
2017-06-01T02:47:06.357Z,16.2
2017-06-01T02:48:09.269Z,16.3
2017-06-01T02:49:11.733Z,16.2
2017-06-01T02:50:14.645Z,16.2
2017-06-01T02:51:16.993Z,16.2
2017-06-01T02:52:19.845Z,16.1
2017-06-01T02:55:28.134Z,16.1
2017-06-01T02:56:30.981Z,16.1
2017-06-01T02:57:33.326Z,16.1
2017-06-01T02:58:36.182Z,16.2
2017-06-01T02:59:39.031Z,16.2
2017-06-01T03:00:42.129Z,16.2
2017-06-01T03:01:44.471Z,16.2
2017-06-01T03:02:47.322Z,16.2
2017-06-01T03:06:58.157Z,16.2
2017-06-01T03:08:01.038Z,16.1
2017-06-01T03:09:03.383Z,16.2
2017-06-01T03:10:05.963Z,16.2
2017-06-01T03:11:08.813Z,16.1
2017-06-01T03:12:11.913Z,16.1
2017-06-01T03:13:14.121Z,16.1
2017-06-01T03:14:17.472Z,16.1
2017-06-01T03:15:19.811Z,16.1
2017-06-01T03:16:22.520Z,16
2017-06-01T03:17:25.483Z,16
2017-06-01T03:18:28.193Z,16
2017-06-01T03:19:31.040Z,16
2017-06-01T03:20:33.383Z,15.9
2017-06-01T03:21:36.227Z,16
2017-06-01T03:22:39.324Z,16
2017-06-01T03:23:41.664Z,16
2017-06-01T03:24:44.510Z,15.9
2017-06-01T03:25:47.150Z,15.9
2017-06-01T03:26:49.728Z,15.8
2017-06-01T03:27:52.691Z,15.8
2017-06-01T03:28:55.540Z,15.8
2017-06-01T03:29:58.253Z,15.7
2017-06-01T03:31:01.100Z,15.6
2017-06-01T03:32:03.442Z,15.6
2017-06-01T03:33:06.544Z,15.8
2017-06-01T03:34:09.386Z,15.8
2017-06-01T03:35:12.092Z,15.9
2017-06-01T03:36:14.801Z,15.9
2017-06-01T03:37:17.146Z,16
2017-06-01T03:38:20.247Z,16
2017-06-01T03:39:22.462Z,16
2017-06-01T03:40:25.676Z,16
2017-06-01T03:41:28.392Z,16
2017-06-01T03:42:31.238Z,16
2017-06-01T03:43:33.838Z,15.9
2017-06-01T03:44:36.686Z,15.9
2017-06-01T03:45:39.028Z,15.9
2017-06-01T03:46:41.885Z,15.9
2017-06-01T03:47:44.733Z,15.9
2017-06-01T03:48:47.901Z,15.9
2017-06-01T03:49:50.242Z,15.9
2017-06-01T03:50:52.956Z,15.9
2017-06-01T03:51:55.674Z,15.9
2017-06-01T03:52:58.529Z,15.8
2017-06-01T03:54:01.039Z,15.8
2017-06-01T03:55:03.886Z,15.8
2017-06-01T03:56:06.597Z,15.8
2017-06-01T03:57:09.447Z,15.9
2017-06-01T03:58:12.161Z,15.9
2017-06-01T03:59:15.258Z,15.9
2017-06-01T04:00:17.605Z,15.8
2017-06-01T04:01:20.184Z,15.7
2017-06-01T04:02:22.900Z,15.6
2017-06-01T04:03:25.613Z,15.7
2017-06-01T04:04:28.576Z,15.7
2017-06-01T04:05:31.421Z,15.7
2017-06-01T04:06:34.134Z,15.6
2017-06-01T04:07:36.982Z,15.7
2017-06-01T04:08:39.321Z,15.6
2017-06-01T04:09:42.369Z,15.6
2017-06-01T04:10:45.213Z,15.6
2017-06-01T04:11:47.928Z,15.6
2017-06-01T04:12:50.137Z,15.6
2017-06-01T04:14:56.154Z,15.6
2017-06-01T04:15:58.869Z,15.6
2017-06-01T04:17:01.726Z,15.6
2017-06-01T04:18:04.069Z,15.6
2017-06-01T04:20:09.942Z,15.6
2017-06-01T04:21:12.155Z,15.8
2017-06-01T04:22:15.506Z,15.8
2017-06-01T04:23:18.084Z,15.8
2017-06-01T04:24:20.930Z,15.6
2017-06-01T04:25:24.029Z,15.7
2017-06-01T04:26:26.237Z,15.7
2017-06-01T04:27:29.084Z,15.7
2017-06-01T04:28:31.934Z,15.7
2017-06-01T04:29:34.647Z,15.6
2017-06-01T04:30:37.746Z,15.6
2017-06-01T04:31:40.090Z,15.5
2017-06-01T04:32:42.944Z,15.4
2017-06-01T04:33:45.791Z,15.3
2017-06-01T04:34:48.134Z,15.3
2017-06-01T04:35:51.236Z,15.3
2017-06-01T04:36:53.952Z,15.4
2017-06-01T04:38:59.077Z,15.5
2017-06-01T04:40:01.926Z,15.6
2017-06-01T04:41:05.025Z,15.6
2017-06-01T04:43:10.206Z,15.8
2017-06-01T04:44:13.427Z,15.7
2017-06-01T04:45:16.137Z,15.7
2017-06-01T04:46:18.600Z,15.7
2017-06-01T04:47:21.444Z,15.6
2017-06-01T04:48:24.344Z,15.6
2017-06-01T04:49:27.189Z,15.7
2017-06-01T04:50:29.896Z,15.7
2017-06-01T04:51:32.999Z,15.7
2017-06-01T04:52:35.339Z,15.6
2017-06-01T04:53:38.179Z,15.6
2017-06-01T04:54:40.886Z,15.7
2017-06-01T04:55:43.600Z,15.7
2017-06-01T04:56:46.699Z,15.7
2017-06-01T04:57:49.039Z,15.8
2017-06-01T04:58:51.755Z,15.8
2017-06-01T04:59:54.331Z,15.8
2017-06-01T05:00:57.680Z,15.8
2017-06-01T05:02:00.781Z,15.7
2017-06-01T05:03:03.122Z,15.6
2017-06-01T05:05:08.246Z,15.7
2017-06-01T05:06:11.597Z,15.6
2017-06-01T05:07:14.062Z,15.6
2017-06-01T05:08:16.905Z,15.6
2017-06-01T05:09:19.619Z,15.5
2017-06-01T05:10:22.466Z,15.4
2017-06-01T05:11:25.181Z,15.3
2017-06-01T05:12:28.283Z,15.3
2017-06-01T05:13:30.628Z,15.3
2017-06-01T05:14:33.342Z,15.3
2017-06-01T05:15:36.189Z,15.3
2017-06-01T05:16:38.909Z,15.3
2017-06-01T05:17:42.076Z,15.4
2017-06-01T05:18:44.484Z,15.5
2017-06-01T05:19:47.199Z,15.5
2017-06-01T05:20:49.911Z,15.4
2017-06-01T05:21:52.622Z,15.5
2017-06-01T05:22:56.270Z,15.5
2017-06-01T05:23:58.613Z,15.3
2017-06-01T05:25:01.326Z,15.5
2017-06-01T05:26:04.171Z,15.5
2017-06-01T05:27:07.018Z,15.6
2017-06-01T05:28:09.980Z,15.6
2017-06-01T05:29:12.051Z,15.6
2017-06-01T05:31:17.807Z,15.6
2017-06-01T05:32:20.656Z,15.7
2017-06-01T05:33:23.618Z,15.8
2017-06-01T05:34:26.335Z,15.8
2017-06-01T05:35:29.182Z,15.9
2017-06-01T05:36:31.902Z,15.8
2017-06-01T05:37:34.749Z,15.8
2017-06-01T05:38:37.848Z,15.8
2017-06-01T05:39:40.192Z,15.8
2017-06-01T05:40:42.635Z,15.9
2017-06-01T05:41:45.989Z,16
2017-06-01T05:42:48.198Z,16.1
2017-06-01T05:43:51.673Z,16.1
2017-06-01T05:44:53.747Z,16.2
2017-06-01T05:45:56.967Z,16.3
2017-06-01T05:46:59.821Z,16.3
2017-06-01T05:48:02.670Z,16.3
2017-06-01T05:49:05.773Z,16.1
2017-06-01T05:50:07.852Z,16.1
2017-06-01T05:51:10.705Z,16.3
2017-06-01T05:52:13.418Z,16.3
2017-06-01T05:53:16.635Z,16.3
2017-06-01T05:54:19.736Z,16.3
2017-06-01T05:55:21.950Z,16.4
2017-06-01T05:56:24.797Z,16.4
2017-06-01T05:57:27.706Z,16.3
2017-06-01T05:58:30.423Z,16
2017-06-01T05:59:33.523Z,15.8
2017-06-01T06:00:36.271Z,15.9
2017-06-01T06:01:38.984Z,15.8
2017-06-01T06:02:41.828Z,15.9
2017-06-01T06:03:44.672Z,16.1
2017-06-01T06:04:47.634Z,16.1
2017-06-01T06:05:50.344Z,16.1
2017-06-01T06:06:53.186Z,15.9
2017-06-01T06:07:55.523Z,15.9
2017-06-01T06:08:58.372Z,15.9
2017-06-01T06:10:01.334Z,16
2017-06-01T06:11:04.181Z,16.1
2017-06-01T06:12:07.031Z,16.1
2017-06-01T06:13:09.878Z,16.2
2017-06-01T06:14:12.600Z,16.1
2017-06-01T06:15:15.697Z,16.1
2017-06-01T06:16:17.914Z,16.3
2017-06-01T06:17:20.627Z,16.3
2017-06-01T06:18:23.978Z,16.1
2017-06-01T06:19:26.690Z,16
2017-06-01T06:20:29.840Z,16
2017-06-01T06:21:31.917Z,16.1
2017-06-01T06:22:34.763Z,16.2
2017-06-01T06:23:37.617Z,16.1
2017-06-01T06:24:40.702Z,16.2
2017-06-01T06:25:43.532Z,16.2
2017-06-01T06:26:46.245Z,16.3
2017-06-01T06:27:49.091Z,16.2
2017-06-01T06:28:51.668Z,16.2
2017-06-01T06:30:57.679Z,16.3
2017-06-01T06:32:00.026Z,16.3
2017-06-01T06:33:02.875Z,16.4
2017-06-01T06:34:05.723Z,16.4
2017-06-01T06:35:08.996Z,16.4
2017-06-01T06:36:11.740Z,16.4
2017-06-01T06:37:15.011Z,16.5
2017-06-01T06:38:17.353Z,16.5
2017-06-01T06:39:19.697Z,16.5
2017-06-01T06:40:22.408Z,16.5
2017-06-01T06:41:25.880Z,16.5
2017-06-01T06:42:28.226Z,16.6
2017-06-01T06:43:31.072Z,16.6
2017-06-01T06:44:33.785Z,16.6
2017-06-01T06:45:36.634Z,16.6
2017-06-01T06:46:39.735Z,16.5
2017-06-01T06:47:42.445Z,16.5
2017-06-01T06:48:45.154Z,16.6
2017-06-01T06:49:48.007Z,16.6
2017-06-01T06:50:50.852Z,16.6
2017-06-01T06:51:53.999Z,16.5
2017-06-01T06:52:56.710Z,16.5
2017-06-01T06:53:59.552Z,16.5
2017-06-01T06:55:02.131Z,16.6
2017-06-01T06:56:04.978Z,16.5
2017-06-01T06:57:07.808Z,16.6
2017-06-01T06:58:10.520Z,16.6
2017-06-01T06:59:13.234Z,16.6
2017-06-01T07:00:16.318Z,16.6
2017-06-01T07:01:19.171Z,16.6
2017-06-01T07:02:22.186Z,16.6
2017-06-01T07:03:24.769Z,16.6
2017-06-01T07:04:27.481Z,16.7
2017-06-01T07:05:30.195Z,16.7
2017-06-01T07:06:33.042Z,16.7
2017-06-01T07:07:36.005Z,16.8
2017-06-01T07:08:38.726Z,16.9
2017-06-01T07:09:41.576Z,17
2017-06-01T07:10:44.439Z,17
2017-06-01T07:11:47.156Z,17
2017-06-01T07:12:50.316Z,17
2017-06-01T07:13:53.162Z,17
2017-06-01T07:14:55.741Z,17.1
2017-06-01T07:17:01.501Z,17.2
2017-06-01T07:18:04.462Z,17.2
2017-06-01T07:20:09.713Z,17.1
2017-06-01T07:21:12.931Z,17.1
2017-06-01T07:22:15.781Z,17.1
2017-06-01T07:23:18.879Z,17.1
2017-06-01T07:24:21.221Z,17
2017-06-01T07:25:23.935Z,17.1
2017-06-01T07:26:26.646Z,17.1
2017-06-01T07:27:30.000Z,17.2
2017-06-01T07:28:33.100Z,17.2
2017-06-01T07:29:35.446Z,17.2
2017-06-01T07:30:38.157Z,17.1
2017-06-01T07:31:41.009Z,17.1
2017-06-01T07:32:43.855Z,17.2
2017-06-01T07:33:46.952Z,17.3
2017-06-01T07:34:49.664Z,17.4
2017-06-01T07:35:52.439Z,17.4
2017-06-01T07:36:55.327Z,17.5
2017-06-01T07:37:58.054Z,17.5
2017-06-01T07:39:01.159Z,17.6
2017-06-01T07:40:04.005Z,17.6
2017-06-01T07:41:06.646Z,17.6
2017-06-01T07:42:09.364Z,17.6
2017-06-01T07:43:12.271Z,17.6
2017-06-01T07:44:15.371Z,17.7
2017-06-01T07:45:18.224Z,17.7
2017-06-01T07:46:20.945Z,17.7
2017-06-01T07:47:23.659Z,17.8
2017-06-01T07:48:26.869Z,17.8
2017-06-01T07:49:29.699Z,17.8
2017-06-01T07:50:32.551Z,17.8
2017-06-01T07:51:35.269Z,17.8
2017-06-01T07:52:38.745Z,17.8
2017-06-01T07:53:41.089Z,17.8
2017-06-01T07:54:44.183Z,17.7
2017-06-01T07:55:47.027Z,17.8
2017-06-01T07:56:49.875Z,17.8
2017-06-01T07:57:52.722Z,17.9
2017-06-01T07:58:55.566Z,17.9
2017-06-01T07:59:58.664Z,17.9
2017-06-01T08:01:01.375Z,18
2017-06-01T08:02:04.084Z,18
2017-06-01T08:03:06.801Z,18
2017-06-01T08:04:09.649Z,18
2017-06-01T08:05:12.477Z,18
2017-06-01T08:06:15.697Z,18
2017-06-01T08:07:18.411Z,18
2017-06-01T08:08:21.122Z,18.1
2017-06-01T08:09:24.512Z,18.1
2017-06-01T08:10:26.971Z,18.1
2017-06-01T08:11:29.686Z,18.1
2017-06-01T08:12:32.538Z,18.1
2017-06-01T08:13:35.383Z,18.2
2017-06-01T08:14:38.093Z,18.2
2017-06-01T08:15:41.570Z,18.2
2017-06-01T08:16:44.416Z,18.2
2017-06-01T08:17:47.194Z,18.2
2017-06-01T08:18:50.041Z,18.2
2017-06-01T08:19:52.754Z,18.3
2017-06-01T08:20:55.856Z,18.3
2017-06-01T08:21:58.704Z,18.3
2017-06-01T08:23:01.552Z,18.3
2017-06-01T08:24:04.259Z,18.3
2017-06-01T08:25:06.972Z,18.3
2017-06-01T08:27:12.851Z,18.4
2017-06-01T08:28:15.697Z,18.4
2017-06-01T08:29:18.543Z,18.4
2017-06-01T08:30:21.762Z,18.4
2017-06-01T08:31:24.488Z,18.5
2017-06-01T08:32:27.616Z,18.4
2017-06-01T08:33:29.961Z,18.4
2017-06-01T08:34:33.180Z,18.3
2017-06-01T08:35:36.023Z,18.2
2017-06-01T08:36:38.870Z,18.3
2017-06-01T08:38:44.881Z,18.2
2017-06-01T08:39:47.457Z,18.2
2017-06-01T08:40:50.169Z,18.3
2017-06-01T08:41:53.251Z,18.3
2017-06-01T08:42:56.099Z,18.5
2017-06-01T08:43:59.196Z,18.5
2017-06-01T08:45:01.909Z,18.5
2017-06-01T08:46:04.756Z,18.6
2017-06-01T08:47:07.336Z,18.6
2017-06-01T08:48:10.051Z,18.6
2017-06-01T08:49:14.066Z,18.7
2017-06-01T08:50:16.274Z,18.6
2017-06-01T08:51:18.988Z,18.7
2017-06-01T08:52:21.764Z,18.7
2017-06-01T08:53:24.608Z,18.8
2017-06-01T08:54:27.576Z,18.8
2017-06-01T08:55:30.795Z,18.7
2017-06-01T08:56:33.643Z,18.7
2017-06-01T08:57:36.356Z,18.7
2017-06-01T08:58:39.205Z,18.7
2017-06-01T08:59:42.308Z,18.8
2017-06-01T09:00:45.023Z,18.8
2017-06-01T09:01:47.765Z,18.8
2017-06-01T09:02:50.612Z,18.8
2017-06-01T09:03:53.830Z,18.8
2017-06-01T09:04:56.981Z,18.8
2017-06-01T09:05:59.324Z,18.8
2017-06-01T09:07:02.170Z,18.8
2017-06-01T09:08:04.883Z,18.8
2017-06-01T09:09:07.830Z,18.8
2017-06-01T09:10:11.435Z,18.8
2017-06-01T09:11:13.513Z,18.8
2017-06-01T09:13:19.784Z,18.8
2017-06-01T09:14:22.496Z,18.8
2017-06-01T09:15:25.594Z,18.9
2017-06-01T09:16:28.310Z,18.9
2017-06-01T09:17:31.159Z,18.9
2017-06-01T09:18:34.009Z,19
2017-06-01T09:19:36.733Z,19
2017-06-01T09:20:40.332Z,19
2017-06-01T09:21:42.677Z,19
2017-06-01T09:22:45.535Z,19
2017-06-01T09:23:48.245Z,19
2017-06-01T09:24:51.464Z,19.1
2017-06-01T09:25:54.562Z,19.1
2017-06-01T09:26:57.273Z,19.1
2017-06-01T09:28:00.678Z,19.1
2017-06-01T09:30:05.666Z,19.1
2017-06-01T09:31:09.271Z,19.1
2017-06-01T09:32:11.614Z,19.1
2017-06-01T09:33:14.462Z,19.1
2017-06-01T09:35:20.217Z,19.2
2017-06-01T09:36:23.316Z,19.1
2017-06-01T09:37:26.162Z,19.1
2017-06-01T09:38:28.740Z,19.1
2017-06-01T09:39:31.959Z,19.1
2017-06-01T09:40:34.810Z,19.1
2017-06-01T09:41:37.964Z,19.1
2017-06-01T09:42:40.810Z,19.2
2017-06-01T09:43:43.714Z,19.2
2017-06-01T09:44:46.426Z,19.3
2017-06-01T09:45:49.278Z,19.3
2017-06-01T09:46:52.376Z,19.3
2017-06-01T09:47:55.223Z,19.2
2017-06-01T09:48:58.070Z,19.3
2017-06-01T09:51:03.698Z,19.3
2017-06-01T09:52:06.800Z,19.3
2017-06-01T09:53:09.512Z,19.3
2017-06-01T09:54:12.785Z,19.3
2017-06-01T09:55:15.634Z,19.3
2017-06-01T09:56:18.349Z,19.3
2017-06-01T09:57:21.514Z,19.3
2017-06-01T09:58:24.364Z,19.4
2017-06-01T09:59:27.072Z,19.4
2017-06-01T10:00:29.916Z,19.4
2017-06-01T10:01:32.762Z,19.4
2017-06-01T10:02:35.861Z,19.5
2017-06-01T10:03:38.706Z,19.4
2017-06-01T10:04:41.548Z,19.4
2017-06-01T10:05:44.781Z,19.4
2017-06-01T10:06:47.633Z,19.5
2017-06-01T10:07:50.734Z,19.5
2017-06-01T10:08:53.082Z,19.5
2017-06-01T10:09:56.299Z,19.5
2017-06-01T10:10:59.145Z,19.5
2017-06-01T10:12:01.990Z,19.3
2017-06-01T10:13:05.092Z,19.3
2017-06-01T10:14:07.816Z,19.3
2017-06-01T10:15:10.260Z,19.4
2017-06-01T10:16:13.475Z,19.4
2017-06-01T10:17:16.189Z,19.4
2017-06-01T10:18:19.795Z,19.4
2017-06-01T10:19:22.139Z,19.4
2017-06-01T10:20:24.986Z,19.4
2017-06-01T10:21:27.829Z,19.4
2017-06-01T10:22:31.180Z,19.4
2017-06-01T10:23:34.147Z,19.5
2017-06-01T10:24:36.999Z,19.5
2017-06-01T10:25:39.713Z,19.4
2017-06-01T10:26:42.426Z,19.5
2017-06-01T10:27:45.271Z,19.5
2017-06-01T10:28:48.232Z,19.5
2017-06-01T10:29:51.081Z,19.5
2017-06-01T10:30:53.924Z,19.5
2017-06-01T10:31:56.635Z,19.5
2017-06-01T10:32:59.757Z,19.5
2017-06-01T10:34:02.854Z,19.5
2017-06-01T10:35:06.122Z,19.5
2017-06-01T10:36:08.336Z,19.4
2017-06-01T10:37:10.913Z,19.5
2017-06-01T10:38:14.276Z,19.5
2017-06-01T10:39:17.376Z,19.5
2017-06-01T10:40:20.089Z,19.5
2017-06-01T10:41:22.666Z,19.5
2017-06-01T10:42:25.884Z,19.5
2017-06-01T10:43:28.597Z,19.5
2017-06-01T10:44:31.564Z,19.5
2017-06-01T10:45:34.407Z,19.5
2017-06-01T10:46:37.251Z,19.5
2017-06-01T10:47:40.098Z,19.5
2017-06-01T10:48:42.945Z,19.5
2017-06-01T10:49:46.046Z,19.5
2017-06-01T10:50:48.911Z,19.5
2017-06-01T10:52:54.677Z,19.5
2017-06-01T10:53:57.527Z,19.6
2017-06-01T10:55:00.498Z,19.5
2017-06-01T10:56:03.214Z,19.6
2017-06-01T10:57:05.926Z,19.6
2017-06-01T10:58:08.640Z,19.6
2017-06-01T10:59:11.854Z,19.6
2017-06-01T11:00:14.959Z,19.6
2017-06-01T11:01:17.738Z,19.6
2017-06-01T11:02:20.451Z,19.6
2017-06-01T11:03:23.163Z,19.5
2017-06-01T11:04:26.243Z,19.5
2017-06-01T11:05:29.341Z,19.5
2017-06-01T11:06:32.053Z,19.5
2017-06-01T11:08:37.811Z,19.6
2017-06-01T11:09:40.394Z,19.6
2017-06-01T11:10:43.493Z,19.6
2017-06-01T11:11:46.381Z,19.6
2017-06-01T11:12:49.236Z,19.6
2017-06-01T11:13:52.084Z,19.6
2017-06-01T11:14:54.934Z,19.6
2017-06-01T11:15:58.081Z,19.6
2017-06-01T11:17:00.292Z,19.6
2017-06-01T11:18:03.644Z,19.6
2017-06-01T11:19:06.497Z,19.6
2017-06-01T11:20:09.213Z,19.6
2017-06-01T11:21:12.314Z,19.6
2017-06-01T11:22:15.161Z,19.6
2017-06-01T11:23:17.874Z,19.6
2017-06-01T11:24:20.517Z,19.6
2017-06-01T11:25:23.369Z,19.6
2017-06-01T11:26:27.580Z,19.6
2017-06-01T11:27:29.284Z,19.6
2017-06-01T11:28:31.993Z,19.7
2017-06-01T11:29:34.842Z,19.7
2017-06-01T11:30:38.192Z,19.7
2017-06-01T11:31:41.297Z,19.7
2017-06-01T11:32:43.372Z,19.7
2017-06-01T11:33:46.724Z,19.7
2017-06-01T11:34:49.444Z,19.7
2017-06-01T11:35:52.293Z,19.8
2017-06-01T11:36:55.251Z,19.8
2017-06-01T11:37:58.117Z,19.8
2017-06-01T11:39:00.835Z,19.8
2017-06-01T11:40:03.414Z,19.8
2017-06-01T11:41:06.635Z,19.8
2017-06-01T11:42:09.601Z,19.8
2017-06-01T11:43:12.181Z,19.8
2017-06-01T11:44:15.397Z,19.8
2017-06-01T11:45:18.241Z,19.8
2017-06-01T11:47:23.749Z,19.8
2017-06-01T11:49:29.506Z,19.8
2017-06-01T11:50:32.222Z,19.8
2017-06-01T11:51:34.933Z,19.8
2017-06-01T11:52:37.897Z,19.8
2017-06-01T11:53:40.739Z,19.8
2017-06-01T11:54:43.955Z,19.8
2017-06-01T11:55:46.672Z,19.8
2017-06-01T11:56:49.519Z,19.8
2017-06-01T11:57:52.617Z,19.9
2017-06-01T11:58:54.961Z,19.9
2017-06-01T11:59:58.175Z,19.9
2017-06-01T12:01:01.582Z,19.9
2017-06-01T12:02:03.788Z,20
2017-06-01T12:03:06.537Z,20
2017-06-01T12:04:09.380Z,20
2017-06-01T12:05:12.226Z,20
2017-06-01T12:06:15.073Z,20
2017-06-01T12:07:17.791Z,20
2017-06-01T12:08:21.394Z,19.9
2017-06-01T12:09:23.738Z,20
2017-06-01T12:10:26.186Z,20
2017-06-01T12:11:29.537Z,20
2017-06-01T12:12:32.383Z,20
2017-06-01T12:13:35.347Z,20
2017-06-01T12:14:38.057Z,20
2017-06-01T12:15:40.899Z,20
2017-06-01T12:16:43.614Z,20
2017-06-01T12:17:46.962Z,20
2017-06-01T12:18:50.066Z,20
2017-06-01T12:19:52.410Z,20
2017-06-01T12:20:55.255Z,20
2017-06-01T12:21:57.967Z,20
2017-06-01T12:23:00.820Z,20
2017-06-01T12:24:04.286Z,20
2017-06-01T12:25:06.492Z,20
2017-06-01T12:26:09.840Z,20
2017-06-01T12:27:12.587Z,20
2017-06-01T12:28:15.305Z,20
2017-06-01T12:29:18.965Z,20
2017-06-01T12:30:21.310Z,20
2017-06-01T12:31:24.208Z,20
2017-06-01T12:32:26.917Z,20.1
2017-06-01T12:33:29.628Z,20
2017-06-01T12:34:33.144Z,20.1
2017-06-01T12:35:35.484Z,20.1
2017-06-01T12:36:38.333Z,20.1
2017-06-01T12:37:41.176Z,20.1
2017-06-01T12:38:43.896Z,20.1
2017-06-01T12:39:46.996Z,20.1
2017-06-01T12:40:49.845Z,20.1
2017-06-01T12:41:52.560Z,20.1
2017-06-01T12:42:55.409Z,20.1
2017-06-01T12:43:58.121Z,20.1
2017-06-01T12:45:01.772Z,20.1
2017-06-01T12:46:04.114Z,20.1
2017-06-01T12:47:07.401Z,20.1
2017-06-01T12:48:09.979Z,20.1
2017-06-01T12:49:12.774Z,20.1
2017-06-01T12:50:15.872Z,20.1
2017-06-01T12:51:19.280Z,20.1
2017-06-01T12:52:21.624Z,20.1
2017-06-01T12:53:24.339Z,20.1
2017-06-01T12:54:27.185Z,20.1
2017-06-01T12:55:30.282Z,20.1
2017-06-01T12:56:33.127Z,20.1
2017-06-01T12:57:35.844Z,20.2
2017-06-01T12:58:38.555Z,20.2
2017-06-01T12:59:41.402Z,20.2
2017-06-01T13:00:44.554Z,20.1
2017-06-01T13:02:50.316Z,20.1
2017-06-01T13:03:53.161Z,20.2
2017-06-01T13:05:59.171Z,20.2
2017-06-01T13:07:01.518Z,20.2
2017-06-01T13:08:04.236Z,20.2
2017-06-01T13:09:07.083Z,20.3
2017-06-01T13:10:10.028Z,20.3
2017-06-01T13:11:13.356Z,20.3
2017-06-01T13:12:15.704Z,20.2
2017-06-01T13:13:18.561Z,20.3
2017-06-01T13:14:21.914Z,20.3
2017-06-01T13:15:24.757Z,20.3
2017-06-01T13:16:27.859Z,20.3
2017-06-01T13:17:30.067Z,20.3
2017-06-01T13:18:32.780Z,20.3
2017-06-01T13:19:35.991Z,20.2
2017-06-01T13:20:38.845Z,20.3
2017-06-01T13:21:41.813Z,20.3
2017-06-01T13:22:44.661Z,20.3
2017-06-01T13:24:50.303Z,20.3
2017-06-01T13:25:53.147Z,20.3
2017-06-01T13:26:56.251Z,20.3
2017-06-01T13:27:59.097Z,20.3
2017-06-01T13:29:01.951Z,20.4
2017-06-01T13:30:04.666Z,20.4
2017-06-01T13:31:07.516Z,20.4
2017-06-01T13:32:10.619Z,20.4
2017-06-01T13:33:13.330Z,20.4
2017-06-01T13:34:16.179Z,20.4
2017-06-01T13:35:18.892Z,20.3
2017-06-01T13:36:22.114Z,20.3
2017-06-01T13:37:25.214Z,20.3
2017-06-01T13:38:27.429Z,20.3
2017-06-01T13:39:30.778Z,20.3
2017-06-01T13:40:33.682Z,20.3
2017-06-01T13:41:36.531Z,20.3
2017-06-01T13:42:39.491Z,20.3
2017-06-01T13:44:45.241Z,20.4
2017-06-01T13:45:48.095Z,20.4
2017-06-01T13:46:50.806Z,20.4
2017-06-01T13:47:53.774Z,20.4
2017-06-01T13:48:56.617Z,20.4
2017-06-01T13:49:59.467Z,20.4
2017-06-01T13:51:02.181Z,20.3
2017-06-01T13:52:04.896Z,20.4
2017-06-01T13:53:08.503Z,20.4
2017-06-01T13:54:10.847Z,20.5
2017-06-01T13:55:13.839Z,20.5
2017-06-01T13:56:16.692Z,20.4
2017-06-01T13:57:19.543Z,20.5
2017-06-01T13:58:22.507Z,20.4
2017-06-01T13:59:25.356Z,20.4
2017-06-01T14:00:28.068Z,20.3
2017-06-01T14:01:30.924Z,20.3
2017-06-01T14:02:33.640Z,20.3
2017-06-01T14:03:37.809Z,20.3
2017-06-01T14:04:39.653Z,20.3
2017-06-01T14:05:42.366Z,20.4
2017-06-01T14:06:45.217Z,20.4
2017-06-01T14:07:47.930Z,20.4
2017-06-01T14:08:51.397Z,20.3
2017-06-01T14:09:54.239Z,20.4
2017-06-01T14:10:57.084Z,20.5
2017-06-01T14:11:59.797Z,20.5
2017-06-01T14:13:02.651Z,20.5
2017-06-01T14:14:05.663Z,20.5
2017-06-01T14:15:08.241Z,20.5
2017-06-01T14:16:11.327Z,20.5
2017-06-01T14:17:14.044Z,20.6
2017-06-01T14:18:16.902Z,20.6
2017-06-01T14:19:20.005Z,20.6
2017-06-01T14:20:22.852Z,20.6
2017-06-01T14:21:25.565Z,20.6
2017-06-01T14:22:28.781Z,20.6
2017-06-01T14:23:31.628Z,20.6
2017-06-01T14:24:34.721Z,20.6
2017-06-01T14:25:36.935Z,20.6
2017-06-01T14:26:40.287Z,20.6
2017-06-01T14:27:43.004Z,20.6
2017-06-01T14:28:45.854Z,20.5
2017-06-01T14:29:48.687Z,20.6
2017-06-01T14:30:51.398Z,20.6
2017-06-01T14:31:54.244Z,20.6
2017-06-01T14:32:56.958Z,20.6
2017-06-01T14:34:00.317Z,20.6
2017-06-01T14:35:03.289Z,20.6
2017-06-01T14:36:06.004Z,20.6
2017-06-01T14:37:08.721Z,20.6
2017-06-01T14:38:11.432Z,20.6
2017-06-01T14:39:14.788Z,20.6
2017-06-01T14:40:17.757Z,20.6
2017-06-01T14:42:23.383Z,20.6
2017-06-01T14:43:26.098Z,20.6
2017-06-01T14:44:28.949Z,20.6
2017-06-01T14:45:32.044Z,20.6
2017-06-01T14:46:34.891Z,20.6
2017-06-01T14:47:37.603Z,20.6
2017-06-01T14:48:40.451Z,20.6
2017-06-01T14:49:43.030Z,20.6
2017-06-01T14:50:46.631Z,20.7
2017-06-01T14:51:48.972Z,20.7
2017-06-01T14:52:51.689Z,20.7
2017-06-01T14:53:55.038Z,20.8
2017-06-01T14:54:57.752Z,20.8
2017-06-01T14:56:00.777Z,20.8
2017-06-01T14:57:03.485Z,20.8
2017-06-01T14:58:06.199Z,20.8
2017-06-01T14:59:09.554Z,20.8
2017-06-01T15:00:12.408Z,20.7
2017-06-01T15:01:15.507Z,20.8
2017-06-01T15:02:17.860Z,20.7
2017-06-01T15:03:20.709Z,20.7
2017-06-01T15:04:23.554Z,20.7
2017-06-01T15:05:26.399Z,20.7
2017-06-01T15:06:29.233Z,20.7
2017-06-01T15:07:32.450Z,20.7
2017-06-01T15:08:35.303Z,20.7
2017-06-01T15:09:38.150Z,20.7
2017-06-01T15:10:41.000Z,20.8
2017-06-01T15:11:44.097Z,20.8
2017-06-01T15:12:46.812Z,20.8
2017-06-01T15:13:49.527Z,20.8
2017-06-01T15:14:52.279Z,20.8
2017-06-01T15:15:55.126Z,20.8
2017-06-01T15:16:58.726Z,20.8
2017-06-01T15:18:00.932Z,20.8
2017-06-01T15:19:03.777Z,20.8
2017-06-01T15:20:06.857Z,20.8
2017-06-01T15:21:09.703Z,20.8
2017-06-01T15:22:13.352Z,20.8
2017-06-01T15:23:15.562Z,20.8
2017-06-01T15:24:18.278Z,20.8
2017-06-01T15:25:21.537Z,20.8
2017-06-01T15:26:24.828Z,20.8
2017-06-01T15:27:27.487Z,20.8
2017-06-01T15:28:29.703Z,20.8
2017-06-01T15:29:32.983Z,20.8
2017-06-01T15:30:35.694Z,20.8